sensor_id;sensor_type;location;lat;lon;timestamp;temperature;humidity
3542;DHT22;1785;47.388;8.538;2023-11-22T00:02:04;10.10;99.90
3542;DHT22;1785;47.388;8.538;2023-11-22T00:04:30;10.00;99.90
3542;DHT22;1785;47.388;8.538;2023-11-22T00:06:57;9.90;99.90
3542;DHT22;1785;47.388;8.538;2023-11-22T00:09:23;9.80;99.90
3542;DHT22;1785;47.388;8.538;2023-11-22T00:11:49;9.80;99.90
3542;DHT22;1785;47.388;8.538;2023-11-22T00:14:15;9.90;99.90
3542;DHT22;1785;47.388;8.538;2023-11-22T00:16:41;10.00;99.90
3542;DHT22;1785;47.388;8.538;2023-11-22T00:19:08;9.90;99.90
3542;DHT22;1785;47.388;8.538;2023-11-22T00:21:35;9.70;99.90
3542;DHT22;1785;47.388;8.538;2023-11-22T00:24:01;9.70;99.90
3542;DHT22;1785;47.388;8.538;2023-11-22T00:26:27;9.60;99.90
3542;DHT22;1785;47.388;8.538;2023-11-22T00:28:53;9.60;99.90
3542;DHT22;1785;47.388;8.538;2023-11-22T00:31:19;9.60;99.90
3542;DHT22;1785;47.388;8.538;2023-11-22T00:33:45;9.40;99.90
3542;DHT22;1785;47.388;8.538;2023-11-22T00:36:12;9.40;99.90
3542;DHT22;1785;47.388;8.538;2023-11-22T00:38:38;9.30;99.90
3542;DHT22;1785;47.388;8.538;2023-11-22T00:41:05;9.40;99.90
3542;DHT22;1785;47.388;8.538;2023-11-22T00:43:32;9.40;99.90
3542;DHT22;1785;47.388;8.538;2023-11-22T00:45:59;9.50;99.90
3542;DHT22;1785;47.388;8.538;2023-11-22T00:48:25;9.60;99.90
3542;DHT22;1785;47.388;8.538;2023-11-22T00:50:51;9.60;99.90
3542;DHT22;1785;47.388;8.538;2023-11-22T00:53:17;9.40;99.90
3542;DHT22;1785;47.388;8.538;2023-11-22T00:55:44;9.40;99.90
3542;DHT22;1785;47.388;8.538;2023-11-22T00:58:11;9.60;99.90
3542;DHT22;1785;47.388;8.538;2023-11-22T01:00:37;9.80;99.90
3542;DHT22;1785;47.388;8.538;2023-11-22T01:03:03;9.90;99.90
3542;DHT22;1785;47.388;8.538;2023-11-22T01:05:30;9.60;99.90
3542;DHT22;1785;47.388;8.538;2023-11-22T01:07:56;9.30;99.90
3542;DHT22;1785;47.388;8.538;2023-11-22T01:10:23;9.50;99.90
3542;DHT22;1785;47.388;8.538;2023-11-22T01:12:49;9.40;99.90
3542;DHT22;1785;47.388;8.538;2023-11-22T01:15:15;9.60;99.90
3542;DHT22;1785;47.388;8.538;2023-11-22T01:17:42;9.70;99.90
3542;DHT22;1785;47.388;8.538;2023-11-22T01:20:11;10.00;99.90
3542;DHT22;1785;47.388;8.538;2023-11-22T01:22:38;10.20;99.90
3542;DHT22;1785;47.388;8.538;2023-11-22T01:25:05;10.30;99.90
3542;DHT22;1785;47.388;8.538;2023-11-22T01:27:31;10.40;99.90
3542;DHT22;1785;47.388;8.538;2023-11-22T01:29:58;10.20;99.90
3542;DHT22;1785;47.388;8.538;2023-11-22T01:32:24;9.90;99.90
3542;DHT22;1785;47.388;8.538;2023-11-22T01:34:50;9.80;99.90
3542;DHT22;1785;47.388;8.538;2023-11-22T01:37:17;9.70;99.90
3542;DHT22;1785;47.388;8.538;2023-11-22T01:39:43;9.90;99.90
3542;DHT22;1785;47.388;8.538;2023-11-22T01:42:09;10.10;99.90
3542;DHT22;1785;47.388;8.538;2023-11-22T01:44:35;10.30;99.90
3542;DHT22;1785;47.388;8.538;2023-11-22T01:47:02;10.10;99.90
3542;DHT22;1785;47.388;8.538;2023-11-22T01:49:30;9.90;99.90
3542;DHT22;1785;47.388;8.538;2023-11-22T01:51:57;9.70;99.90
3542;DHT22;1785;47.388;8.538;2023-11-22T01:54:24;9.80;99.90
3542;DHT22;1785;47.388;8.538;2023-11-22T01:56:51;10.00;99.90
3542;DHT22;1785;47.388;8.538;2023-11-22T01:59:18;10.00;99.90
3542;DHT22;1785;47.388;8.538;2023-11-22T02:01:44;9.90;99.90
3542;DHT22;1785;47.388;8.538;2023-11-22T02:04:12;9.80;99.90
3542;DHT22;1785;47.388;8.538;2023-11-22T02:06:39;9.60;99.90
3542;DHT22;1785;47.388;8.538;2023-11-22T02:09:06;9.70;99.90
3542;DHT22;1785;47.388;8.538;2023-11-22T02:11:33;9.70;99.90
3542;DHT22;1785;47.388;8.538;2023-11-22T02:13:59;9.80;99.90
3542;DHT22;1785;47.388;8.538;2023-11-22T02:16:25;9.40;99.90
3542;DHT22;1785;47.388;8.538;2023-11-22T02:18:53;9.70;99.90
3542;DHT22;1785;47.388;8.538;2023-11-22T02:21:20;9.80;99.90
3542;DHT22;1785;47.388;8.538;2023-11-22T02:23:47;9.90;99.90
3542;DHT22;1785;47.388;8.538;2023-11-22T02:26:13;10.00;99.90
3542;DHT22;1785;47.388;8.538;2023-11-22T02:28:43;9.90;99.90
3542;DHT22;1785;47.388;8.538;2023-11-22T02:31:09;9.80;99.90
3542;DHT22;1785;47.388;8.538;2023-11-22T02:33:35;10.10;99.90
3542;DHT22;1785;47.388;8.538;2023-11-22T02:36:02;10.10;99.90
3542;DHT22;1785;47.388;8.538;2023-11-22T02:38:28;10.00;99.90
3542;DHT22;1785;47.388;8.538;2023-11-22T02:40:55;9.90;99.90
3542;DHT22;1785;47.388;8.538;2023-11-22T02:43:21;9.70;99.90
3542;DHT22;1785;47.388;8.538;2023-11-22T02:45:48;9.50;99.90
3542;DHT22;1785;47.388;8.538;2023-11-22T02:48:14;9.50;99.90
3542;DHT22;1785;47.388;8.538;2023-11-22T02:50:41;9.60;99.90
3542;DHT22;1785;47.388;8.538;2023-11-22T02:53:09;9.70;99.90
3542;DHT22;1785;47.388;8.538;2023-11-22T02:55:35;9.70;99.90
3542;DHT22;1785;47.388;8.538;2023-11-22T02:58:02;9.40;99.90
3542;DHT22;1785;47.388;8.538;2023-11-22T03:00:28;9.10;99.90
3542;DHT22;1785;47.388;8.538;2023-11-22T03:02:55;9.10;99.90
3542;DHT22;1785;47.388;8.538;2023-11-22T03:05:21;9.10;99.90
3542;DHT22;1785;47.388;8.538;2023-11-22T03:07:47;9.10;99.90
3542;DHT22;1785;47.388;8.538;2023-11-22T03:10:14;9.10;99.90
3542;DHT22;1785;47.388;8.538;2023-11-22T03:12:43;9.10;99.90
3542;DHT22;1785;47.388;8.538;2023-11-22T03:15:10;9.10;99.90
3542;DHT22;1785;47.388;8.538;2023-11-22T03:17:37;9.10;99.90
3542;DHT22;1785;47.388;8.538;2023-11-22T03:20:05;9.20;99.90
3542;DHT22;1785;47.388;8.538;2023-11-22T03:22:36;9.40;99.90
3542;DHT22;1785;47.388;8.538;2023-11-22T03:25:04;9.50;99.90
3542;DHT22;1785;47.388;8.538;2023-11-22T03:27:30;9.60;99.90
3542;DHT22;1785;47.388;8.538;2023-11-22T03:29:56;9.60;99.90
3542;DHT22;1785;47.388;8.538;2023-11-22T03:32:23;9.50;99.90
3542;DHT22;1785;47.388;8.538;2023-11-22T03:34:49;9.60;99.90
3542;DHT22;1785;47.388;8.538;2023-11-22T03:37:15;9.60;99.90
3542;DHT22;1785;47.388;8.538;2023-11-22T03:39:41;9.50;99.90
3542;DHT22;1785;47.388;8.538;2023-11-22T03:42:13;9.50;99.90
3542;DHT22;1785;47.388;8.538;2023-11-22T03:44:40;9.40;99.90
3542;DHT22;1785;47.388;8.538;2023-11-22T03:47:06;9.40;99.90
3542;DHT22;1785;47.388;8.538;2023-11-22T03:49:33;9.50;99.90
3542;DHT22;1785;47.388;8.538;2023-11-22T03:51:59;9.40;99.90
3542;DHT22;1785;47.388;8.538;2023-11-22T03:54:25;9.10;99.90
3542;DHT22;1785;47.388;8.538;2023-11-22T03:56:51;9.00;99.90
3542;DHT22;1785;47.388;8.538;2023-11-22T03:59:18;9.10;99.90
3542;DHT22;1785;47.388;8.538;2023-11-22T04:01:44;9.10;99.90
3542;DHT22;1785;47.388;8.538;2023-11-22T04:04:10;9.00;99.90
3542;DHT22;1785;47.388;8.538;2023-11-22T04:06:37;9.10;99.90
3542;DHT22;1785;47.388;8.538;2023-11-22T04:09:04;9.10;99.90
3542;DHT22;1785;47.388;8.538;2023-11-22T04:11:31;9.10;99.90
3542;DHT22;1785;47.388;8.538;2023-11-22T04:13:57;9.10;99.90
3542;DHT22;1785;47.388;8.538;2023-11-22T04:16:23;9.10;99.90
3542;DHT22;1785;47.388;8.538;2023-11-22T04:18:49;8.80;99.90
3542;DHT22;1785;47.388;8.538;2023-11-22T04:21:15;8.80;99.90
3542;DHT22;1785;47.388;8.538;2023-11-22T04:23:42;8.80;99.90
3542;DHT22;1785;47.388;8.538;2023-11-22T04:26:08;9.10;99.90
3542;DHT22;1785;47.388;8.538;2023-11-22T04:28:34;9.10;99.90
3542;DHT22;1785;47.388;8.538;2023-11-22T04:31:00;9.20;99.90
3542;DHT22;1785;47.388;8.538;2023-11-22T04:33:27;9.20;99.90
3542;DHT22;1785;47.388;8.538;2023-11-22T04:35:54;9.50;99.90
3542;DHT22;1785;47.388;8.538;2023-11-22T04:38:20;9.50;99.90
3542;DHT22;1785;47.388;8.538;2023-11-22T04:40:47;9.40;99.90
3542;DHT22;1785;47.388;8.538;2023-11-22T04:43:13;9.30;99.90
3542;DHT22;1785;47.388;8.538;2023-11-22T04:45:39;9.30;99.90
3542;DHT22;1785;47.388;8.538;2023-11-22T04:48:06;9.40;99.90
3542;DHT22;1785;47.388;8.538;2023-11-22T04:50:32;9.30;99.90
3542;DHT22;1785;47.388;8.538;2023-11-22T04:52:58;9.30;99.90
3542;DHT22;1785;47.388;8.538;2023-11-22T04:55:24;9.50;99.90
3542;DHT22;1785;47.388;8.538;2023-11-22T04:57:51;9.40;99.90
3542;DHT22;1785;47.388;8.538;2023-11-22T05:00:19;9.40;99.90
3542;DHT22;1785;47.388;8.538;2023-11-22T05:02:45;9.40;99.90
3542;DHT22;1785;47.388;8.538;2023-11-22T05:05:11;9.50;99.90
3542;DHT22;1785;47.388;8.538;2023-11-22T05:07:37;9.30;99.90
3542;DHT22;1785;47.388;8.538;2023-11-22T05:10:05;9.00;99.90
3542;DHT22;1785;47.388;8.538;2023-11-22T05:12:33;9.10;99.90
3542;DHT22;1785;47.388;8.538;2023-11-22T05:15:00;9.00;99.90
3542;DHT22;1785;47.388;8.538;2023-11-22T05:17:27;9.10;99.90
3542;DHT22;1785;47.388;8.538;2023-11-22T05:19:53;9.20;99.90
3542;DHT22;1785;47.388;8.538;2023-11-22T05:22:19;9.00;99.90
3542;DHT22;1785;47.388;8.538;2023-11-22T05:24:47;9.10;99.90
3542;DHT22;1785;47.388;8.538;2023-11-22T05:27:13;9.40;99.90
3542;DHT22;1785;47.388;8.538;2023-11-22T05:29:39;9.40;99.90
3542;DHT22;1785;47.388;8.538;2023-11-22T05:32:06;9.40;99.90
3542;DHT22;1785;47.388;8.538;2023-11-22T05:34:33;9.40;99.90
3542;DHT22;1785;47.388;8.538;2023-11-22T05:36:59;9.40;99.90
3542;DHT22;1785;47.388;8.538;2023-11-22T05:39:25;9.40;99.90
3542;DHT22;1785;47.388;8.538;2023-11-22T05:41:51;9.40;99.90
3542;DHT22;1785;47.388;8.538;2023-11-22T05:44:18;9.40;99.90
3542;DHT22;1785;47.388;8.538;2023-11-22T05:46:44;9.40;99.90
3542;DHT22;1785;47.388;8.538;2023-11-22T05:49:11;9.40;99.90
3542;DHT22;1785;47.388;8.538;2023-11-22T05:51:37;9.40;99.90
3542;DHT22;1785;47.388;8.538;2023-11-22T05:54:04;9.30;99.90
3542;DHT22;1785;47.388;8.538;2023-11-22T05:56:30;9.40;99.90
3542;DHT22;1785;47.388;8.538;2023-11-22T05:58:57;9.20;99.90
3542;DHT22;1785;47.388;8.538;2023-11-22T06:01:25;9.40;99.90
3542;DHT22;1785;47.388;8.538;2023-11-22T06:03:52;9.30;99.90
3542;DHT22;1785;47.388;8.538;2023-11-22T06:06:20;9.30;99.90
3542;DHT22;1785;47.388;8.538;2023-11-22T06:08:47;9.20;99.90
3542;DHT22;1785;47.388;8.538;2023-11-22T06:11:13;9.20;99.90
3542;DHT22;1785;47.388;8.538;2023-11-22T06:13:40;9.50;99.90
3542;DHT22;1785;47.388;8.538;2023-11-22T06:16:08;9.50;99.90
3542;DHT22;1785;47.388;8.538;2023-11-22T06:18:34;9.50;99.90
3542;DHT22;1785;47.388;8.538;2023-11-22T06:21:05;9.40;99.90
3542;DHT22;1785;47.388;8.538;2023-11-22T06:23:32;9.30;99.90
3542;DHT22;1785;47.388;8.538;2023-11-22T06:25:59;9.20;99.90
3542;DHT22;1785;47.388;8.538;2023-11-22T06:28:25;9.30;99.90
3542;DHT22;1785;47.388;8.538;2023-11-22T06:30:51;9.30;99.90
3542;DHT22;1785;47.388;8.538;2023-11-22T06:33:17;9.30;99.90
3542;DHT22;1785;47.388;8.538;2023-11-22T06:35:44;9.50;99.90
3542;DHT22;1785;47.388;8.538;2023-11-22T06:38:10;9.60;99.90
3542;DHT22;1785;47.388;8.538;2023-11-22T06:40:37;9.80;99.90
3542;DHT22;1785;47.388;8.538;2023-11-22T06:43:03;10.00;99.90
3542;DHT22;1785;47.388;8.538;2023-11-22T06:45:30;9.90;99.90
3542;DHT22;1785;47.388;8.538;2023-11-22T06:47:57;9.90;99.90
3542;DHT22;1785;47.388;8.538;2023-11-22T06:50:24;9.80;99.90
3542;DHT22;1785;47.388;8.538;2023-11-22T06:52:51;9.70;99.90
3542;DHT22;1785;47.388;8.538;2023-11-22T06:55:18;9.40;99.90
3542;DHT22;1785;47.388;8.538;2023-11-22T06:57:45;9.10;99.90
3542;DHT22;1785;47.388;8.538;2023-11-22T07:00:12;8.80;99.90
3542;DHT22;1785;47.388;8.538;2023-11-22T07:02:39;8.50;99.90
3542;DHT22;1785;47.388;8.538;2023-11-22T07:05:06;8.30;99.90
3542;DHT22;1785;47.388;8.538;2023-11-22T07:07:33;8.30;99.90
3542;DHT22;1785;47.388;8.538;2023-11-22T07:10:00;8.20;99.90
3542;DHT22;1785;47.388;8.538;2023-11-22T07:12:26;8.30;99.90
3542;DHT22;1785;47.388;8.538;2023-11-22T07:14:54;8.30;99.90
3542;DHT22;1785;47.388;8.538;2023-11-22T07:17:21;8.50;99.90
3542;DHT22;1785;47.388;8.538;2023-11-22T07:19:48;8.60;99.90
3542;DHT22;1785;47.388;8.538;2023-11-22T07:22:14;8.50;99.90
3542;DHT22;1785;47.388;8.538;2023-11-22T07:24:45;8.40;99.90
3542;DHT22;1785;47.388;8.538;2023-11-22T07:27:13;8.20;99.90
3542;DHT22;1785;47.388;8.538;2023-11-22T07:29:40;8.10;99.90
3542;DHT22;1785;47.388;8.538;2023-11-22T07:32:07;8.10;99.90
3542;DHT22;1785;47.388;8.538;2023-11-22T07:34:34;8.00;99.90
3542;DHT22;1785;47.388;8.538;2023-11-22T07:37:00;8.10;99.90
3542;DHT22;1785;47.388;8.538;2023-11-22T07:39:27;8.00;99.90
3542;DHT22;1785;47.388;8.538;2023-11-22T07:41:54;8.10;99.90
3542;DHT22;1785;47.388;8.538;2023-11-22T07:44:20;7.90;99.90
3542;DHT22;1785;47.388;8.538;2023-11-22T07:46:47;7.90;99.90
3542;DHT22;1785;47.388;8.538;2023-11-22T07:49:14;8.00;99.90
3542;DHT22;1785;47.388;8.538;2023-11-22T07:51:40;7.90;99.90
3542;DHT22;1785;47.388;8.538;2023-11-22T07:54:07;7.80;99.90
3542;DHT22;1785;47.388;8.538;2023-11-22T07:56:34;7.90;99.90
3542;DHT22;1785;47.388;8.538;2023-11-22T07:59:00;8.00;99.90
3542;DHT22;1785;47.388;8.538;2023-11-22T08:01:27;8.00;99.90
3542;DHT22;1785;47.388;8.538;2023-11-22T08:03:57;7.80;99.90
3542;DHT22;1785;47.388;8.538;2023-11-22T08:06:24;7.90;99.90
3542;DHT22;1785;47.388;8.538;2023-11-22T08:08:52;7.60;99.90
3542;DHT22;1785;47.388;8.538;2023-11-22T08:11:19;7.60;99.90
3542;DHT22;1785;47.388;8.538;2023-11-22T08:13:46;7.60;99.90
3542;DHT22;1785;47.388;8.538;2023-11-22T08:16:13;7.40;99.90
3542;DHT22;1785;47.388;8.538;2023-11-22T08:18:39;7.30;99.90
3542;DHT22;1785;47.388;8.538;2023-11-22T08:21:06;7.20;99.90
3542;DHT22;1785;47.388;8.538;2023-11-22T08:23:33;7.30;99.90
3542;DHT22;1785;47.388;8.538;2023-11-22T08:25:59;7.20;99.90
3542;DHT22;1785;47.388;8.538;2023-11-22T08:28:26;7.30;99.90
3542;DHT22;1785;47.388;8.538;2023-11-22T08:30:52;7.30;99.90
3542;DHT22;1785;47.388;8.538;2023-11-22T08:33:19;7.30;99.90
3542;DHT22;1785;47.388;8.538;2023-11-22T08:35:45;7.40;99.90
3542;DHT22;1785;47.388;8.538;2023-11-22T08:38:16;7.60;99.90
3542;DHT22;1785;47.388;8.538;2023-11-22T08:40:43;7.70;99.90
3542;DHT22;1785;47.388;8.538;2023-11-22T08:43:10;7.40;99.90
3542;DHT22;1785;47.388;8.538;2023-11-22T08:45:36;7.50;99.90
3542;DHT22;1785;47.388;8.538;2023-11-22T08:48:02;7.70;99.90
3542;DHT22;1785;47.388;8.538;2023-11-22T08:50:29;7.80;99.90
3542;DHT22;1785;47.388;8.538;2023-11-22T08:52:55;7.50;99.90
3542;DHT22;1785;47.388;8.538;2023-11-22T08:55:23;7.40;99.90
3542;DHT22;1785;47.388;8.538;2023-11-22T08:57:51;7.20;99.90
3542;DHT22;1785;47.388;8.538;2023-11-22T09:00:17;7.40;99.90
3542;DHT22;1785;47.388;8.538;2023-11-22T09:02:48;7.70;99.90
3542;DHT22;1785;47.388;8.538;2023-11-22T09:05:15;7.70;99.90
3542;DHT22;1785;47.388;8.538;2023-11-22T09:07:42;7.70;99.90
3542;DHT22;1785;47.388;8.538;2023-11-22T09:10:10;7.90;99.90
3542;DHT22;1785;47.388;8.538;2023-11-22T09:12:37;7.90;99.90
3542;DHT22;1785;47.388;8.538;2023-11-22T09:15:06;8.00;99.90
3542;DHT22;1785;47.388;8.538;2023-11-22T09:17:35;8.00;99.90
3542;DHT22;1785;47.388;8.538;2023-11-22T09:20:01;7.60;99.90
3542;DHT22;1785;47.388;8.538;2023-11-22T09:22:28;7.50;99.90
3542;DHT22;1785;47.388;8.538;2023-11-22T09:24:55;7.50;99.90
3542;DHT22;1785;47.388;8.538;2023-11-22T09:27:21;7.50;99.90
3542;DHT22;1785;47.388;8.538;2023-11-22T09:29:47;7.70;99.90
3542;DHT22;1785;47.388;8.538;2023-11-22T09:32:16;7.80;99.90
3542;DHT22;1785;47.388;8.538;2023-11-22T09:34:42;7.80;99.90
3542;DHT22;1785;47.388;8.538;2023-11-22T09:37:09;7.50;99.90
3542;DHT22;1785;47.388;8.538;2023-11-22T09:39:36;7.50;99.90
3542;DHT22;1785;47.388;8.538;2023-11-22T09:42:02;7.60;99.90
3542;DHT22;1785;47.388;8.538;2023-11-22T09:44:30;7.80;99.90
3542;DHT22;1785;47.388;8.538;2023-11-22T09:46:57;8.60;99.90
3542;DHT22;1785;47.388;8.538;2023-11-22T09:49:25;9.00;99.90
3542;DHT22;1785;47.388;8.538;2023-11-22T09:51:57;9.10;99.90
3542;DHT22;1785;47.388;8.538;2023-11-22T09:54:28;8.60;99.90
3542;DHT22;1785;47.388;8.538;2023-11-22T09:56:59;8.30;99.90
3542;DHT22;1785;47.388;8.538;2023-11-22T09:59:27;8.30;99.90
3542;DHT22;1785;47.388;8.538;2023-11-22T10:01:54;7.80;99.90
3542;DHT22;1785;47.388;8.538;2023-11-22T10:04:20;7.70;99.90
3542;DHT22;1785;47.388;8.538;2023-11-22T10:06:47;7.70;99.90
3542;DHT22;1785;47.388;8.538;2023-11-22T10:09:14;7.20;99.90
3542;DHT22;1785;47.388;8.538;2023-11-22T10:11:41;7.10;99.90
3542;DHT22;1785;47.388;8.538;2023-11-22T10:14:09;7.30;99.90
3542;DHT22;1785;47.388;8.538;2023-11-22T10:16:35;7.40;99.90
3542;DHT22;1785;47.388;8.538;2023-11-22T10:19:03;7.30;99.90
3542;DHT22;1785;47.388;8.538;2023-11-22T10:21:32;7.20;99.90
3542;DHT22;1785;47.388;8.538;2023-11-22T10:24:02;7.10;99.90
3542;DHT22;1785;47.388;8.538;2023-11-22T10:26:28;7.20;99.90
3542;DHT22;1785;47.388;8.538;2023-11-22T10:28:55;6.80;99.90
3542;DHT22;1785;47.388;8.538;2023-11-22T10:31:25;6.70;99.90
3542;DHT22;1785;47.388;8.538;2023-11-22T10:33:51;6.90;99.90
3542;DHT22;1785;47.388;8.538;2023-11-22T10:36:19;6.90;99.90
3542;DHT22;1785;47.388;8.538;2023-11-22T10:38:47;6.70;99.90
3542;DHT22;1785;47.388;8.538;2023-11-22T10:41:14;7.10;99.90
3542;DHT22;1785;47.388;8.538;2023-11-22T10:43:41;7.20;99.90
3542;DHT22;1785;47.388;8.538;2023-11-22T10:46:08;7.20;99.90
3542;DHT22;1785;47.388;8.538;2023-11-22T10:48:36;7.20;99.90
3542;DHT22;1785;47.388;8.538;2023-11-22T10:51:03;7.00;99.90
3542;DHT22;1785;47.388;8.538;2023-11-22T10:53:32;7.10;99.90
3542;DHT22;1785;47.388;8.538;2023-11-22T10:56:11;7.20;99.90
3542;DHT22;1785;47.388;8.538;2023-11-22T10:58:43;7.30;99.90
3542;DHT22;1785;47.388;8.538;2023-11-22T11:01:11;7.30;99.90
3542;DHT22;1785;47.388;8.538;2023-11-22T11:03:39;7.40;99.90
3542;DHT22;1785;47.388;8.538;2023-11-22T11:06:10;7.50;99.90
3542;DHT22;1785;47.388;8.538;2023-11-22T11:08:39;7.70;99.90
3542;DHT22;1785;47.388;8.538;2023-11-22T11:11:06;7.50;99.90
3542;DHT22;1785;47.388;8.538;2023-11-22T11:13:32;7.50;99.90
3542;DHT22;1785;47.388;8.538;2023-11-22T11:16:00;7.60;99.90
3542;DHT22;1785;47.388;8.538;2023-11-22T11:18:27;7.70;99.90
3542;DHT22;1785;47.388;8.538;2023-11-22T11:20:56;7.90;99.90
3542;DHT22;1785;47.388;8.538;2023-11-22T11:23:23;8.20;99.90
3542;DHT22;1785;47.388;8.538;2023-11-22T11:25:51;8.10;99.90
3542;DHT22;1785;47.388;8.538;2023-11-22T11:28:18;7.80;99.90
3542;DHT22;1785;47.388;8.538;2023-11-22T11:30:45;7.70;99.90
3542;DHT22;1785;47.388;8.538;2023-11-22T11:33:13;7.80;99.90
3542;DHT22;1785;47.388;8.538;2023-11-22T11:35:43;7.70;99.90
3542;DHT22;1785;47.388;8.538;2023-11-22T11:38:12;7.90;99.90
3542;DHT22;1785;47.388;8.538;2023-11-22T11:40:40;8.00;99.90
3542;DHT22;1785;47.388;8.538;2023-11-22T11:43:06;7.90;99.90
3542;DHT22;1785;47.388;8.538;2023-11-22T11:45:36;8.00;99.90
3542;DHT22;1785;47.388;8.538;2023-11-22T11:48:05;7.80;99.90
3542;DHT22;1785;47.388;8.538;2023-11-22T11:50:32;7.90;99.90
3542;DHT22;1785;47.388;8.538;2023-11-22T11:52:58;8.10;99.90
3542;DHT22;1785;47.388;8.538;2023-11-22T11:55:26;8.10;99.90
3542;DHT22;1785;47.388;8.538;2023-11-22T11:57:53;8.10;99.90
3542;DHT22;1785;47.388;8.538;2023-11-22T12:00:20;8.10;99.90
3542;DHT22;1785;47.388;8.538;2023-11-22T12:02:52;7.90;99.90
3542;DHT22;1785;47.388;8.538;2023-11-22T12:05:21;7.70;99.90
3542;DHT22;1785;47.388;8.538;2023-11-22T12:07:48;7.90;99.90
3542;DHT22;1785;47.388;8.538;2023-11-22T12:10:14;7.80;99.90
3542;DHT22;1785;47.388;8.538;2023-11-22T12:12:43;7.50;99.90
3542;DHT22;1785;47.388;8.538;2023-11-22T12:15:11;7.50;99.90
3542;DHT22;1785;47.388;8.538;2023-11-22T12:17:39;7.60;99.90
3542;DHT22;1785;47.388;8.538;2023-11-22T12:20:10;7.60;99.90
3542;DHT22;1785;47.388;8.538;2023-11-22T12:22:37;7.50;99.90
3542;DHT22;1785;47.388;8.538;2023-11-22T12:25:06;7.30;99.90
3542;DHT22;1785;47.388;8.538;2023-11-22T12:27:33;7.30;99.90
3542;DHT22;1785;47.388;8.538;2023-11-22T12:29:59;7.30;99.90
3542;DHT22;1785;47.388;8.538;2023-11-22T12:32:26;7.50;99.90
3542;DHT22;1785;47.388;8.538;2023-11-22T12:34:54;7.70;99.90
3542;DHT22;1785;47.388;8.538;2023-11-22T12:37:20;7.80;99.90
3542;DHT22;1785;47.388;8.538;2023-11-22T12:39:47;7.90;99.90
3542;DHT22;1785;47.388;8.538;2023-11-22T12:42:14;7.70;99.90
3542;DHT22;1785;47.388;8.538;2023-11-22T12:44:47;7.70;99.90
3542;DHT22;1785;47.388;8.538;2023-11-22T12:47:14;7.70;99.90
3542;DHT22;1785;47.388;8.538;2023-11-22T12:49:44;7.50;99.90
3542;DHT22;1785;47.388;8.538;2023-11-22T12:52:11;7.60;99.90
3542;DHT22;1785;47.388;8.538;2023-11-22T12:54:39;7.60;99.90
3542;DHT22;1785;47.388;8.538;2023-11-22T12:57:10;7.90;99.90
3542;DHT22;1785;47.388;8.538;2023-11-22T12:59:39;7.90;99.90
3542;DHT22;1785;47.388;8.538;2023-11-22T13:02:06;7.80;99.90
3542;DHT22;1785;47.388;8.538;2023-11-22T13:04:33;7.80;99.90
3542;DHT22;1785;47.388;8.538;2023-11-22T13:06:59;8.10;99.90
3542;DHT22;1785;47.388;8.538;2023-11-22T13:09:25;8.20;99.90
3542;DHT22;1785;47.388;8.538;2023-11-22T13:11:52;7.80;99.90
3542;DHT22;1785;47.388;8.538;2023-11-22T13:14:18;7.80;99.90
3542;DHT22;1785;47.388;8.538;2023-11-22T13:16:45;7.90;99.90
3542;DHT22;1785;47.388;8.538;2023-11-22T13:19:12;8.10;99.90
3542;DHT22;1785;47.388;8.538;2023-11-22T13:21:38;8.00;99.90
3542;DHT22;1785;47.388;8.538;2023-11-22T13:24:06;7.80;99.90
3542;DHT22;1785;47.388;8.538;2023-11-22T13:26:33;7.70;99.90
3542;DHT22;1785;47.388;8.538;2023-11-22T13:29:00;7.60;99.90
3542;DHT22;1785;47.388;8.538;2023-11-22T13:31:26;7.70;99.90
3542;DHT22;1785;47.388;8.538;2023-11-22T13:33:53;7.80;99.90
3542;DHT22;1785;47.388;8.538;2023-11-22T13:36:19;7.60;99.90
3542;DHT22;1785;47.388;8.538;2023-11-22T13:38:45;7.80;99.90
3542;DHT22;1785;47.388;8.538;2023-11-22T13:41:11;7.80;99.90
3542;DHT22;1785;47.388;8.538;2023-11-22T13:43:37;7.70;99.90
3542;DHT22;1785;47.388;8.538;2023-11-22T13:46:05;7.20;99.90
3542;DHT22;1785;47.388;8.538;2023-11-22T13:48:31;7.10;99.90
3542;DHT22;1785;47.388;8.538;2023-11-22T13:50:58;7.10;99.90
3542;DHT22;1785;47.388;8.538;2023-11-22T13:53:26;7.20;99.90
3542;DHT22;1785;47.388;8.538;2023-11-22T13:55:56;7.10;99.90
3542;DHT22;1785;47.388;8.538;2023-11-22T13:58:23;7.30;99.90
3542;DHT22;1785;47.388;8.538;2023-11-22T14:00:50;7.40;99.90
3542;DHT22;1785;47.388;8.538;2023-11-22T14:03:19;7.60;99.90
3542;DHT22;1785;47.388;8.538;2023-11-22T14:05:47;7.60;99.90
3542;DHT22;1785;47.388;8.538;2023-11-22T14:08:14;7.70;99.90
3542;DHT22;1785;47.388;8.538;2023-11-22T14:10:41;7.80;99.90
3542;DHT22;1785;47.388;8.538;2023-11-22T14:13:07;7.70;99.90
3542;DHT22;1785;47.388;8.538;2023-11-22T14:15:34;7.70;99.90
3542;DHT22;1785;47.388;8.538;2023-11-22T14:18:01;7.70;99.90
3542;DHT22;1785;47.388;8.538;2023-11-22T14:20:27;7.90;99.90
3542;DHT22;1785;47.388;8.538;2023-11-22T14:22:55;7.90;99.90
3542;DHT22;1785;47.388;8.538;2023-11-22T14:25:22;7.70;99.90
3542;DHT22;1785;47.388;8.538;2023-11-22T14:27:49;7.50;99.90
3542;DHT22;1785;47.388;8.538;2023-11-22T14:30:18;7.40;99.90
3542;DHT22;1785;47.388;8.538;2023-11-22T14:32:46;7.30;99.90
3542;DHT22;1785;47.388;8.538;2023-11-22T14:35:12;7.20;99.90
3542;DHT22;1785;47.388;8.538;2023-11-22T14:37:39;6.90;99.90
3542;DHT22;1785;47.388;8.538;2023-11-22T14:40:06;6.90;99.90
3542;DHT22;1785;47.388;8.538;2023-11-22T14:42:41;7.00;99.90
3542;DHT22;1785;47.388;8.538;2023-11-22T14:45:08;7.00;99.90
3542;DHT22;1785;47.388;8.538;2023-11-22T14:47:34;7.00;99.90
3542;DHT22;1785;47.388;8.538;2023-11-22T14:50:02;7.00;99.90
3542;DHT22;1785;47.388;8.538;2023-11-22T14:52:30;7.10;99.90
3542;DHT22;1785;47.388;8.538;2023-11-22T14:54:56;7.00;99.90
3542;DHT22;1785;47.388;8.538;2023-11-22T14:57:25;6.90;99.90
3542;DHT22;1785;47.388;8.538;2023-11-22T14:59:52;6.90;99.90
3542;DHT22;1785;47.388;8.538;2023-11-22T15:02:18;6.90;99.90
3542;DHT22;1785;47.388;8.538;2023-11-22T15:04:44;6.90;99.90
3542;DHT22;1785;47.388;8.538;2023-11-22T15:07:11;7.10;99.90
3542;DHT22;1785;47.388;8.538;2023-11-22T15:09:37;7.20;99.90
3542;DHT22;1785;47.388;8.538;2023-11-22T15:12:04;7.10;99.90
3542;DHT22;1785;47.388;8.538;2023-11-22T15:14:31;6.90;99.90
3542;DHT22;1785;47.388;8.538;2023-11-22T15:16:59;6.90;99.90
3542;DHT22;1785;47.388;8.538;2023-11-22T15:19:26;7.00;99.90
3542;DHT22;1785;47.388;8.538;2023-11-22T15:21:53;7.10;99.90
3542;DHT22;1785;47.388;8.538;2023-11-22T15:24:20;7.30;99.90
3542;DHT22;1785;47.388;8.538;2023-11-22T15:26:46;7.40;99.90
3542;DHT22;1785;47.388;8.538;2023-11-22T15:29:13;7.50;99.90
3542;DHT22;1785;47.388;8.538;2023-11-22T15:31:41;7.30;99.90
3542;DHT22;1785;47.388;8.538;2023-11-22T15:34:09;7.20;99.90
3542;DHT22;1785;47.388;8.538;2023-11-22T15:36:36;7.40;99.90
3542;DHT22;1785;47.388;8.538;2023-11-22T15:39:03;7.40;99.90
3542;DHT22;1785;47.388;8.538;2023-11-22T15:41:31;7.50;99.90
3542;DHT22;1785;47.388;8.538;2023-11-22T15:43:58;7.10;99.90
3542;DHT22;1785;47.388;8.538;2023-11-22T15:46:24;6.90;99.90
3542;DHT22;1785;47.388;8.538;2023-11-22T15:48:50;6.90;99.90
3542;DHT22;1785;47.388;8.538;2023-11-22T15:51:17;7.20;99.90
3542;DHT22;1785;47.388;8.538;2023-11-22T15:53:43;7.30;99.90
3542;DHT22;1785;47.388;8.538;2023-11-22T15:56:09;6.90;99.90
3542;DHT22;1785;47.388;8.538;2023-11-22T15:58:40;6.90;99.90
3542;DHT22;1785;47.388;8.538;2023-11-22T16:01:07;6.70;99.90
3542;DHT22;1785;47.388;8.538;2023-11-22T16:03:34;6.90;99.90
3542;DHT22;1785;47.388;8.538;2023-11-22T16:06:00;6.70;99.90
3542;DHT22;1785;47.388;8.538;2023-11-22T16:08:29;6.70;99.90
3542;DHT22;1785;47.388;8.538;2023-11-22T16:10:56;6.60;99.90
3542;DHT22;1785;47.388;8.538;2023-11-22T16:13:22;6.80;99.90
3542;DHT22;1785;47.388;8.538;2023-11-22T16:15:48;6.90;99.90